Historique des stations

Station météo de Barrage d Eguzon

Altitude de la station : 200 m







Données météorologiques pour le 18/08/2022
Date
Heure
Températures Humidité Point de rosée Vitesse
du vent
Direction Rafales Windchill Pression Pluviométrie
Cumul
Date
Heure
Températures Humidité Point de rosée Vitesse
du vent
Direction Rafales Windchill Pression Pluviométrie
Cumul
18/08/2022 15:1026.2 °C48 %14.3 °C2 km/hSSO13 km/h26.21012 hPa0.0 mm
18/08/2022 15:0026.1 °C49 %14.5 °C2 km/hSO11 km/h26.11012 hPa0.0 mm
18/08/2022 14:4025.2 °C48 %13.4 °C2 km/hOSO11 km/h25.21012 hPa0.0 mm
18/08/2022 14:3025.3 °C51 %14.4 °C2 km/hOSO10 km/h25.31012 hPa0.0 mm
18/08/2022 14:1024.4 °C52 %13.9 °C2 km/hONO8 km/h24.41012 hPa0.0 mm
18/08/2022 14:0024.2 °C55 %14.5 °C2 km/h11 km/h24.21012 hPa0.0 mm
18/08/2022 13:4023.9 °C57 %14.9 °C2 km/hOSO10 km/h23.91012 hPa0.0 mm
18/08/2022 13:3024.1 °C54 %14.2 °C2 km/hSO8 km/h24.11012 hPa0.0 mm
18/08/2022 13:0024.2 °C58 %15.4 °C2 km/h5 km/h24.21012 hPa0.0 mm
18/08/2022 12:4023.9 °C60 %15.6 °C2 km/hSSO6 km/h23.91011 hPa0.0 mm
18/08/2022 12:3023.4 °C63 %16.0 °C2 km/hSSO6 km/h23.41011 hPa0.0 mm
18/08/2022 12:1023.4 °C63 %15.9 °C2 km/hSO6 km/h23.41011 hPa0.0 mm
18/08/2022 12:0022.7 °C65 %15.8 °C1 km/hNO10 km/h22.71011 hPa0.0 mm
18/08/2022 11:4022.7 °C66 %16.0 °C-NO10 km/h22.71011 hPa0.0 mm
18/08/2022 11:3022.3 °C67 %15.9 °C-SO5 km/h22.31011 hPa0.0 mm
18/08/2022 11:1021.1 °C72 %15.9 °C-5 km/h21.11011 hPa0.0 mm
18/08/2022 11:0019.8 °C76 %15.5 °C-NNO6 km/h19.81012 hPa0.0 mm
18/08/2022 10:4019.8 °C76 %15.4 °C-NNO3 km/h19.81012 hPa0.0 mm
18/08/2022 10:3020.3 °C76 %15.9 °C-5 km/h20.31012 hPa0.0 mm
18/08/2022 10:1019.3 °C80 %15.8 °C-3 km/h19.31011 hPa0.0 mm
18/08/2022 10:0018.1 °C83 %15.2 °C-5 km/h18.11011 hPa0.0 mm
18/08/2022 09:4017.0 °C87 %14.8 °C-NO3 km/h17.01011 hPa0.0 mm
18/08/2022 09:3015.9 °C91 %14.4 °C-NO3 km/h15.91011 hPa0.0 mm
18/08/2022 09:1015.6 °C91 %14.1 °C-NO2 km/h15.61011 hPa0.0 mm
18/08/2022 09:0015.4 °C92 %14.1 °C-2 km/h15.41011 hPa0.0 mm
18/08/2022 08:1015.1 °C92 %13.8 °C-NO3 km/h15.11011 hPa0.0 mm
18/08/2022 08:0015.2 °C92 %13.9 °C-ESE3 km/h15.21011 hPa0.0 mm
18/08/2022 07:4015.0 °C93 %13.9 °C---15.01011 hPa0.0 mm
18/08/2022 07:1014.7 °C93 %13.5 °C-3 km/h14.71010 hPa0.0 mm
18/08/2022 05:1014.7 °C93 %13.6 °C-2 km/h14.71010 hPa0.0 mm
18/08/2022 04:4015.1 °C91 %13.6 °C-E3 km/h15.11010 hPa0.0 mm
18/08/2022 04:1015.1 °C91 %13.7 °C---15.11010 hPa0.0 mm
18/08/2022 03:0015.9 °C91 %14.4 °C-NE3 km/h15.91010 hPa0.0 mm
18/08/2022 02:1016.4 °C91 %15.0 °C-ENE2 km/h16.41010 hPa0.0 mm
18/08/2022 01:4016.9 °C89 %15.1 °C-ENE2 km/h16.91010 hPa2.6 mm
18/08/2022 00:0019.3 °C83 %16.3 °C1 km/hS8 km/h19.31010 hPa2.6 mm


Minima :

Température : 14.7 °C
Humidité : 48 %
Point de rosée : 13.4 °C
Vent moyen : 1 km/h
Windchill : 14.7
Pression atm. : 1010 hPa
Maxima :

Température : 26.2 °C
Humidité : 93 %
Point de rosée : 16.3 °C
Vent moyen : 2 km/h
Windchill : 26.2
Pression atm. : 1012 hPa
Rafales max : 13 km/h
Cumul de pluie sur 24H : 2.6 mm

Eguzon est une commune du département Indre (36).
La station météorologique du réseau de l'association la plus proche de Barrage d Eguzon est celle de Lys-Saint-Georges



Icône Facebook Association Météo Centre Icône Twitter Association Météo Centre Icône Chaîne Youtube Association Météo Centre Icône contact Association Météo Centre Icône Insta Association Météo Centre